Time;durP1;ratioP1;P1;durP2;ratioP2;P2;SDS_P1;SDS_P2;PMS_P1;PMS_P2;Temp;Humidity;BMP_temperature;BMP_pressure;BME280_temperature;BME280_humidity;BME280_pressure;Samples;Min_cycle;Max_cycle;Signal;HPM_P1;HPM_P2
2023/05/07 00:00:18;;;;;;;;;;;;;;;;;;5034377;28;20012;-78
2023/05/07 00:02:44;;;;;;;;;;;;;;;;;;5034500;28;20279;-79
2023/05/07 00:05:09;;;;;;;;;;;;;;;;;;5033531;28;19919;-79
2023/05/07 00:07:35;;;;;;;;;;;;;;;;;;5034181;28;19909;-79
2023/05/07 00:10:00;;;;;;;;;;;;;;;;;;5035127;28;19913;-78
2023/05/07 00:12:25;;;;;;;;;;;;;;;;;;5033925;28;19908;-78
2023/05/07 00:14:51;;;;;;;;;;;;;;;;;;5034937;28;20376;-78
2023/05/07 00:17:16;;;;;;;;;;;;;;;;;;5042804;28;20342;-77
2023/05/07 00:19:41;;;;;;;;;;;;;;;;;;5040866;28;19924;-77
2023/05/07 00:22:07;;;;;;;;;;;;;;;;;;5041809;28;19916;-77
2023/05/07 00:24:32;;;;;;;;;;;;;;;;;;5045275;28;20008;-77
2023/05/07 00:26:57;;;;;;;;;;;;;;;;;;5035650;28;20299;-77
2023/05/07 00:29:23;;;;;;;;;;;;;;;;;;5032661;28;19913;-77
2023/05/07 00:31:48;;;;;;;;;;;;;;;;;;5033241;28;19908;-77
2023/05/07 00:34:13;;;;;;;;;;;;;;;;;;5033092;28;20374;-77
2023/05/07 00:36:39;;;;;;;;;;;;;;;;;;5032461;28;19916;-77
2023/05/07 00:39:04;;;;;;;;;;;;;;;;;;5032142;28;20384;-77
2023/05/07 00:41:33;;;;;;;;;;;;;;;;;;5033507;28;19913;-77
2023/05/07 00:43:58;;;;;;;;;;;;;;;;;;5032461;28;19936;-77
2023/05/07 00:46:23;;;;;;;;;;;;;;;;;;5016264;28;19908;-77
2023/05/07 00:48:49;;;;;;;;;;;;;;;;;;5041071;28;19913;-76
2023/05/07 00:51:14;;;;;;;;;;;;;;;;;;5033894;28;19909;-77
2023/05/07 00:53:39;;;;;;;;;;;;;;;;;;5031657;28;19920;-77
2023/05/07 00:56:06;;;;;;;;;;;;;;;;;;5030929;28;19908;-77
2023/05/07 00:58:31;;;;;;;;;;;;;;;;;;5034207;28;19978;-77
2023/05/07 01:00:56;;;;;;;;;;;;;;;;;;5033149;28;20375;-77
2023/05/07 01:03:22;;;;;;;;;;;;;;;;;;5033165;28;19960;-77
2023/05/07 01:05:47;;;;;;;;;;;;;;;;;;5030880;28;19909;-77
2023/05/07 01:08:12;;;;;;;;;;;;;;;;;;5032300;28;19913;-76
2023/05/07 01:10:42;;;;;;;;;;;;;;;;;;5031389;28;19909;-77
2023/05/07 01:13:08;;;;;;;;;;;;;;;;;;5049386;28;19912;-77
2023/05/07 01:15:33;;;;;;;;;;;;;;;;;;5032565;28;19912;-77
2023/05/07 01:17:59;;;;;;;;;;;;;;;;;;5032649;28;20011;-77
2023/05/07 01:20:30;;;;;;;;;;;;;;;;;;5017278;28;19912;-77
2023/05/07 01:22:56;;;;;;;;;;;;;;;;;;5032100;28;19920;-76
2023/05/07 01:25:21;;;;;;;;;;;;;;;;;;5032983;28;19919;-77
2023/05/07 01:27:50;;;;;;;;;;;;;;;;;;5046239;28;19978;-77
2023/05/07 01:30:15;;;;;;;;;;;;;;;;;;5031437;28;19909;-76
2023/05/07 01:32:40;;;;;;;;;;;;;;;;;;5035323;28;19932;-75
2023/05/07 01:35:06;;;;;;;;;;;;;;;;;;5041247;28;19920;-76
2023/05/07 01:37:31;;;;;;;;;;;;;;;;;;5045134;28;20320;-74
2023/05/07 01:39:56;;;;;;;;;;;;;;;;;;5032238;28;20007;-75
2023/05/07 01:42:22;;;;;;;;;;;;;;;;;;5032523;28;19913;-77
2023/05/07 01:44:47;;;;;;;;;;;;;;;;;;5033112;28;19912;-75
2023/05/07 01:47:12;;;;;;;;;;;;;;;;;;5035854;28;19959;-77
2023/05/07 01:49:38;;;;;;;;;;;;;;;;;;5039253;28;19920;-77
2023/05/07 01:52:03;;;;;;;;;;;;;;;;;;5037280;28;20007;-77
2023/05/07 01:54:29;;;;;;;;;;;;;;;;;;5038889;28;19908;-77
2023/05/07 01:56:55;;;;;;;;;;;;;;;;;;5035108;28;20668;-77
2023/05/07 01:59:20;;;;;;;;;;;;;;;;;;5039005;28;19917;-77
2023/05/07 02:01:45;;;;;;;;;;;;;;;;;;5039115;28;20020;-76
2023/05/07 02:04:11;;;;;;;;;;;;;;;;;;5034592;28;20371;-77
2023/05/07 02:06:36;;;;;;;;;;;;;;;;;;5034995;28;20367;-77
2023/05/07 02:09:03;;;;;;;;;;;;;;;;;;5035046;28;19909;-76
2023/05/07 02:11:29;;;;;;;;;;;;;;;;;;5035195;28;19919;-77
2023/05/07 02:13:54;;;;;;;;;;;;;;;;;;5035187;28;19909;-76
2023/05/07 02:16:21;;;;;;;;;;;;;;;;;;5036294;28;19963;-76
2023/05/07 02:18:46;;;;;;;;;;;;;;;;;;5037070;28;19913;-77
2023/05/07 02:21:11;;;;;;;;;;;;;;;;;;5034495;28;20307;-77
2023/05/07 02:23:37;;;;;;;;;;;;;;;;;;5036103;28;19995;-77
2023/05/07 02:26:02;;;;;;;;;;;;;;;;;;5034814;28;19944;-76
2023/05/07 02:28:27;;;;;;;;;;;;;;;;;;5035225;28;19912;-77
2023/05/07 02:31:00;;;;;;;;;;;;;;;;;;5035838;28;20415;-77
2023/05/07 02:33:27;;;;;;;;;;;;;;;;;;5035158;28;20402;-77
2023/05/07 02:35:52;;;;;;;;;;;;;;;;;;5034995;28;19952;-77
2023/05/07 02:38:18;;;;;;;;;;;;;;;;;;5036009;28;19913;-77
2023/05/07 02:40:43;;;;;;;;;;;;;;;;;;5026576;28;19948;-77
2023/05/07 02:43:08;;;;;;;;;;;;;;;;;;5035785;28;19912;-77
2023/05/07 02:45:34;;;;;;;;;;;;;;;;;;5041679;28;20304;-77
2023/05/07 02:48:00;;;;;;;;;;;;;;;;;;5034996;28;19917;-77
2023/05/07 02:50:26;;;;;;;;;;;;;;;;;;5036210;28;19932;-77
2023/05/07 02:52:53;;;;;;;;;;;;;;;;;;5018763;28;19970;-77
2023/05/07 02:55:18;;;;;;;;;;;;;;;;;;5035321;28;19909;-77
2023/05/07 02:57:43;;;;;;;;;;;;;;;;;;5034105;28;19917;-77
2023/05/07 03:00:08;;;;;;;;;;;;;;;;;;5035144;28;19919;-77
2023/05/07 03:02:34;;;;;;;;;;;;;;;;;;5036076;28;19913;-77
2023/05/07 03:04:59;;;;;;;;;;;;;;;;;;5035743;28;20346;-77
2023/05/07 03:07:25;;;;;;;;;;;;;;;;;;5037461;28;19919;-77
2023/05/07 03:09:50;;;;;;;;;;;;;;;;;;5036307;28;20050;-77
2023/05/07 03:12:15;;;;;;;;;;;;;;;;;;5035952;28;19913;-77
2023/05/07 03:14:41;;;;;;;;;;;;;;;;;;5031821;28;20364;-77
2023/05/07 03:17:06;;;;;;;;;;;;;;;;;;5063812;28;19912;-77
2023/05/07 03:19:31;;;;;;;;;;;;;;;;;;5036674;28;19913;-77
2023/05/07 03:21:57;;;;;;;;;;;;;;;;;;5035210;28;19936;-77
2023/05/07 03:24:22;;;;;;;;;;;;;;;;;;5034873;28;19959;-77
2023/05/07 03:26:48;;;;;;;;;;;;;;;;;;5044500;28;19913;-76
2023/05/07 03:29:13;;;;;;;;;;;;;;;;;;5033491;28;19908;-76
2023/05/07 03:31:38;;;;;;;;;;;;;;;;;;5035117;28;19913;-77
2023/05/07 03:34:04;;;;;;;;;;;;;;;;;;5060950;28;19932;-77
2023/05/07 03:36:29;;;;;;;;;;;;;;;;;;5028710;28;19971;-77
2023/05/07 03:38:55;;;;;;;;;;;;;;;;;;5049823;28;19913;-77
2023/05/07 03:41:23;;;;;;;;;;;;;;;;;;5033472;28;20423;-77
2023/05/07 03:43:49;;;;;;;;;;;;;;;;;;5033651;28;19952;-77
2023/05/07 03:46:14;;;;;;;;;;;;;;;;;;5034272;28;19913;-77
2023/05/07 03:48:40;;;;;;;;;;;;;;;;;;5033652;28;20067;-77
2023/05/07 03:51:05;;;;;;;;;;;;;;;;;;5033116;28;19970;-77
2023/05/07 03:53:32;;;;;;;;;;;;;;;;;;5049504;28;19908;-77
2023/05/07 03:55:57;;;;;;;;;;;;;;;;;;5033930;28;20438;-77
2023/05/07 03:58:23;;;;;;;;;;;;;;;;;;5032783;28;19944;-77
2023/05/07 04:00:48;;;;;;;;;;;;;;;;;;5043124;28;20003;-77
2023/05/07 04:03:22;;;;;;;;;;;;;;;;;;5023578;28;19909;-77
2023/05/07 04:05:47;;;;;;;;;;;;;;;;;;5016753;28;19928;-77
2023/05/07 04:08:13;;;;;;;;;;;;;;;;;;5016143;28;19920;-77
2023/05/07 04:10:41;;;;;;;;;;;;;;;;;;5017588;28;19924;-77
2023/05/07 04:13:09;;;;;;;;;;;;;;;;;;5017903;28;19916;-76
2023/05/07 04:15:35;;;;;;;;;;;;;;;;;;5034281;28;19913;-78
2023/05/07 04:18:00;;;;;;;;;;;;;;;;;;5033963;28;19913;-77
2023/05/07 04:20:26;;;;;;;;;;;;;;;;;;5036512;28;20394;-76
2023/05/07 04:22:57;;;;;;;;;;;;;;;;;;5035833;28;19913;-76
2023/05/07 04:25:26;;;;;;;;;;;;;;;;;;5038980;28;19913;-77
2023/05/07 04:27:52;;;;;;;;;;;;;;;;;;5035949;28;19916;-76
2023/05/07 04:30:18;;;;;;;;;;;;;;;;;;5035953;28;19913;-77
2023/05/07 04:32:44;;;;;;;;;;;;;;;;;;5041280;28;19913;-77
2023/05/07 04:35:10;;;;;;;;;;;;;;;;;;5031802;28;19921;-77
2023/05/07 04:37:35;;;;;;;;;;;;;;;;;;5032790;28;19920;-77
2023/05/07 04:40:01;;;;;;;;;;;;;;;;;;5032693;28;19921;-77
2023/05/07 04:42:27;;;;;;;;;;;;;;;;;;5032505;28;19916;-76
2023/05/07 04:44:52;;;;;;;;;;;;;;;;;;5015875;28;19912;-76
2023/05/07 04:47:17;;;;;;;;;;;;;;;;;;5032329;28;19909;-76
2023/05/07 04:50:08;;;;;;;;;;;;;;;;;;5034156;28;20371;-76
2023/05/07 04:52:34;;;;;;;;;;;;;;;;;;5039841;28;19913;-76
2023/05/07 04:55:00;;;;;;;;;;;;;;;;;;5034702;28;20395;-76
2023/05/07 04:57:26;;;;;;;;;;;;;;;;;;5040252;28;19912;-76
2023/05/07 04:59:51;;;;;;;;;;;;;;;;;;5040104;28;19919;-76
2023/05/07 05:02:16;;;;;;;;;;;;;;;;;;5030868;28;19940;-78
2023/05/07 05:04:42;;;;;;;;;;;;;;;;;;5035907;28;19916;-76
2023/05/07 05:07:07;;;;;;;;;;;;;;;;;;5039423;28;19912;-76
2023/05/07 05:09:32;;;;;;;;;;;;;;;;;;5044742;28;19915;-76
2023/05/07 05:11:58;;;;;;;;;;;;;;;;;;5041701;28;19913;-76
2023/05/07 05:14:23;;;;;;;;;;;;;;;;;;5021351;28;19910;-77
2023/05/07 05:16:49;;;;;;;;;;;;;;;;;;5025814;28;19913;-76
2023/05/07 05:19:15;;;;;;;;;;;;;;;;;;5034532;28;19913;-76
2023/05/07 05:21:42;;;;;;;;;;;;;;;;;;5031849;28;19913;-75
2023/05/07 05:24:08;;;;;;;;;;;;;;;;;;5049035;28;19916;-75
2023/05/07 05:26:34;;;;;;;;;;;;;;;;;;5032430;28;20364;-76
2023/05/07 05:28:59;;;;;;;;;;;;;;;;;;5062957;28;19909;-76
2023/05/07 05:31:26;;;;;;;;;;;;;;;;;;5033287;28;19913;-77
2023/05/07 05:33:52;;;;;;;;;;;;;;;;;;5035103;28;20350;-77
2023/05/07 05:36:17;;;;;;;;;;;;;;;;;;5044985;28;19923;-77
2023/05/07 05:38:44;;;;;;;;;;;;;;;;;;5037394;28;20391;-77
2023/05/07 05:41:10;;;;;;;;;;;;;;;;;;5043640;28;19920;-77
2023/05/07 05:43:35;;;;;;;;;;;;;;;;;;5039845;28;20425;-78
2023/05/07 05:46:01;;;;;;;;;;;;;;;;;;5036043;28;19956;-77
2023/05/07 05:48:26;;;;;;;;;;;;;;;;;;5057898;28;19908;-77
2023/05/07 05:50:52;;;;;;;;;;;;;;;;;;5036138;28;19941;-77
2023/05/07 05:53:17;;;;;;;;;;;;;;;;;;5041450;28;19908;-77
2023/05/07 05:55:43;;;;;;;;;;;;;;;;;;5030834;28;20007;-76
2023/05/07 05:58:09;;;;;;;;;;;;;;;;;;5070468;28;19920;-77
2023/05/07 06:00:38;;;;;;;;;;;;;;;;;;5036765;28;19924;-78
2023/05/07 06:03:04;;;;;;;;;;;;;;;;;;5024975;28;20015;-78
2023/05/07 06:05:30;;;;;;;;;;;;;;;;;;5037094;28;19952;-77
2023/05/07 06:07:56;;;;;;;;;;;;;;;;;;5048864;28;19909;-77
2023/05/07 06:10:21;;;;;;;;;;;;;;;;;;5044002;28;20356;-78
2023/05/07 06:12:46;;;;;;;;;;;;;;;;;;5041942;28;19916;-77
2023/05/07 06:15:12;;;;;;;;;;;;;;;;;;5027731;28;19971;-77
2023/05/07 06:17:38;;;;;;;;;;;;;;;;;;5033058;28;20430;-77
2023/05/07 06:20:04;;;;;;;;;;;;;;;;;;5030996;28;19917;-78
2023/05/07 06:22:29;;;;;;;;;;;;;;;;;;5033413;28;19909;-78
2023/05/07 06:24:55;;;;;;;;;;;;;;;;;;5033072;28;20016;-77
2023/05/07 06:27:20;;;;;;;;;;;;;;;;;;5033135;28;19920;-77
2023/05/07 06:29:45;;;;;;;;;;;;;;;;;;5033658;28;19913;-77
2023/05/07 06:32:14;;;;;;;;;;;;;;;;;;5034505;28;19909;-77
2023/05/07 06:34:41;;;;;;;;;;;;;;;;;;5037166;28;19932;-77
2023/05/07 06:37:06;;;;;;;;;;;;;;;;;;5034379;28;19913;-78
2023/05/07 06:39:45;;;;;;;;;;;;;;;;;;5024659;28;19955;-77
2023/05/07 06:42:11;;;;;;;;;;;;;;;;;;5040084;28;20533;-77
2023/05/07 06:44:40;;;;;;;;;;;;;;;;;;5039736;28;19916;-77
2023/05/07 06:47:11;;;;;;;;;;;;;;;;;;5039243;28;19924;-77
2023/05/07 06:49:38;;;;;;;;;;;;;;;;;;5040357;28;19919;-77
2023/05/07 06:52:03;;;;;;;;;;;;;;;;;;5048889;28;20000;-78
2023/05/07 06:54:29;;;;;;;;;;;;;;;;;;5039723;28;19913;-77
2023/05/07 06:56:54;;;;;;;;;;;;;;;;;;5038419;28;20312;-77
2023/05/07 06:59:21;;;;;;;;;;;;;;;;;;5038212;28;19921;-77
2023/05/07 07:01:46;;;;;;;;;;;;;;;;;;5038763;28;19931;-77
2023/05/07 07:04:12;;;;;;;;;;;;;;;;;;5022215;28;19913;-77
2023/05/07 07:06:39;;;;;;;;;;;;;;;;;;5039770;28;19909;-77
2023/05/07 07:09:08;;;;;;;;;;;;;;;;;;5039717;28;19913;-77
2023/05/07 07:11:34;;;;;;;;;;;;;;;;;;5037678;28;19909;-77
2023/05/07 07:13:59;;;;;;;;;;;;;;;;;;5039437;28;20395;-78
2023/05/07 07:16:24;;;;;;;;;;;;;;;;;;5035244;28;19909;-77
2023/05/07 07:18:50;;;;;;;;;;;;;;;;;;5017948;28;19917;-77
2023/05/07 07:21:16;;;;;;;;;;;;;;;;;;5034104;28;19909;-78
2023/05/07 07:23:41;;;;;;;;;;;;;;;;;;5033886;28;20307;-78
2023/05/07 07:26:07;;;;;;;;;;;;;;;;;;5032894;28;19909;-77
2023/05/07 07:28:32;;;;;;;;;;;;;;;;;;5035218;28;19919;-77
2023/05/07 07:30:57;;;;;;;;;;;;;;;;;;5034591;28;19916;-77
2023/05/07 07:33:22;;;;;;;;;;;;;;;;;;5047849;28;19913;-77
2023/05/07 07:35:48;;;;;;;;;;;;;;;;;;5018487;28;19931;-78
2023/05/07 07:38:13;;;;;;;;;;;;;;;;;;5039321;28;20298;-77
2023/05/07 07:40:39;;;;;;;;;;;;;;;;;;5018937;28;19936;-77
2023/05/07 07:43:06;;;;;;;;;;;;;;;;;;5036430;28;19960;-76
2023/05/07 07:45:31;;;;;;;;;;;;;;;;;;5038875;28;19951;-76
2023/05/07 07:47:57;;;;;;;;;;;;;;;;;;5038093;28;20296;-75
2023/05/07 07:50:22;;;;;;;;;;;;;;;;;;5036322;28;19978;-76
2023/05/07 07:52:47;;;;;;;;;;;;;;;;;;5043621;28;19955;-76
2023/05/07 07:55:17;;;;;;;;;;;;;;;;;;5053166;28;19920;-77
2023/05/07 07:57:43;;;;;;;;;;;;;;;;;;5039809;28;19963;-76
2023/05/07 08:00:11;;;;;;;;;;;;;;;;;;5037852;28;19927;-75
2023/05/07 08:02:43;;;;;;;;;;;;;;;;;;5062713;28;20295;-78
2023/05/07 08:05:11;;;;;;;;;;;;;;;;;;5035409;28;19931;-74
2023/05/07 08:07:37;;;;;;;;;;;;;;;;;;5036433;28;20007;-76
2023/05/07 08:10:03;;;;;;;;;;;;;;;;;;5033508;28;19913;-76
2023/05/07 08:12:28;;;;;;;;;;;;;;;;;;5045270;28;20046;-76
2023/05/07 08:14:53;;;;;;;;;;;;;;;;;;5027467;28;20403;-76
2023/05/07 08:17:21;;;;;;;;;;;;;;;;;;5034731;28;19908;-80
2023/05/07 08:19:47;;;;;;;;;;;;;;;;;;5033372;28;19917;-77
2023/05/07 08:22:13;;;;;;;;;;;;;;;;;;5034665;28;19916;-78
2023/05/07 08:24:39;;;;;;;;;;;;;;;;;;5016835;28;19912;-80
2023/05/07 08:27:04;;;;;;;;;;;;;;;;;;5034462;28;19915;-80
2023/05/07 08:29:30;;;;;;;;;;;;;;;;;;5033542;28;20300;-78
2023/05/07 08:31:56;;;;;;;;;;;;;;;;;;5037481;28;19908;-80
2023/05/07 08:34:21;;;;;;;;;;;;;;;;;;5033971;28;19929;-78
2023/05/07 08:36:48;;;;;;;;;;;;;;;;;;5022092;28;19913;-78
2023/05/07 08:39:16;;;;;;;;;;;;;;;;;;5031266;28;20380;-80
2023/05/07 08:41:43;;;;;;;;;;;;;;;;;;5031983;28;19987;-78
2023/05/07 08:44:09;;;;;;;;;;;;;;;;;;5030600;28;19944;-79
2023/05/07 08:46:34;;;;;;;;;;;;;;;;;;5030732;28;19952;-79
2023/05/07 08:49:00;;;;;;;;;;;;;;;;;;5031404;28;20016;-79
2023/05/07 08:51:25;;;;;;;;;;;;;;;;;;5032023;28;19909;-81
2023/05/07 08:53:51;;;;;;;;;;;;;;;;;;5032547;28;19916;-79
2023/05/07 08:56:24;;;;;;;;;;;;;;;;;;5030929;28;19909;-80
2023/05/07 08:58:56;;;;;;;;;;;;;;;;;;5047540;28;19921;-81
2023/05/07 09:01:21;;;;;;;;;;;;;;;;;;5035926;28;19924;-80
2023/05/07 09:03:50;;;;;;;;;;;;;;;;;;5062764;28;19916;-81
2023/05/07 09:06:15;;;;;;;;;;;;;;;;;;5043771;28;19913;-80
2023/05/07 09:08:41;;;;;;;;;;;;;;;;;;5051635;28;19985;-78
2023/05/07 09:11:07;;;;;;;;;;;;;;;;;;5041383;28;19912;-80
2023/05/07 09:13:32;;;;;;;;;;;;;;;;;;5040122;28;19979;-79
2023/05/07 09:15:59;;;;;;;;;;;;;;;;;;5010604;28;19914;-82
2023/05/07 09:18:25;;;;;;;;;;;;;;;;;;5063418;28;19916;-82
2023/05/07 09:20:51;;;;;;;;;;;;;;;;;;5034924;28;20315;-83
2023/05/07 09:23:18;;;;;;;;;;;;;;;;;;5041175;28;20372;-84
2023/05/07 09:25:43;;;;;;;;;;;;;;;;;;5038779;28;19913;-83
2023/05/07 09:28:15;;;;;;;;;;;;;;;;;;5051334;28;20003;-82
2023/05/07 09:30:40;;;;;;;;;;;;;;;;;;5050915;28;20015;-82
2023/05/07 09:33:08;;;;;;;;;;;;;;;;;;5037460;28;20310;-82
2023/05/07 09:35:36;;;;;;;;;;;;;;;;;;5052775;28;19941;-82
2023/05/07 09:38:06;;;;;;;;;;;;;;;;;;5039250;28;19990;-81
2023/05/07 09:40:34;;;;;;;;;;;;;;;;;;5052262;28;19940;-83
2023/05/07 09:43:03;;;;;;;;;;;;;;;;;;5035101;28;20273;-82
2023/05/07 09:45:29;;;;;;;;;;;;;;;;;;5031189;28;19920;-82
2023/05/07 09:47:56;;;;;;;;;;;;;;;;;;5034490;28;19915;-81
2023/05/07 09:50:22;;;;;;;;;;;;;;;;;;5035684;28;19913;-81
2023/05/07 09:52:47;;;;;;;;;;;;;;;;;;5037553;28;20003;-81
2023/05/07 09:55:12;;;;;;;;;;;;;;;;;;5019734;28;20296;-81
2023/05/07 09:57:38;;;;;;;;;;;;;;;;;;5039754;28;19913;-81
2023/05/07 10:00:06;;;;;;;;;;;;;;;;;;5035319;28;19917;-83
2023/05/07 10:02:48;;;;;;;;;;;;;;;;;;5035457;28;20334;-83
2023/05/07 10:05:13;;;;;;;;;;;;;;;;;;5018822;28;19939;-82
2023/05/07 10:07:39;;;;;;;;;;;;;;;;;;5043358;28;19908;-82
2023/05/07 10:10:07;;;;;;;;;;;;;;;;;;5040487;28;19913;-81
2023/05/07 10:12:40;;;;;;;;;;;;;;;;;;5045541;28;19939;-82
2023/05/07 10:15:11;;;;;;;;;;;;;;;;;;5035462;28;20035;-82
2023/05/07 10:17:37;;;;;;;;;;;;;;;;;;5069678;28;19927;-82
2023/05/07 10:20:03;;;;;;;;;;;;;;;;;;5021660;28;20299;-83
2023/05/07 10:22:29;;;;;;;;;;;;;;;;;;5041825;28;20407;-82
2023/05/07 10:24:54;;;;;;;;;;;;;;;;;;5029810;28;19935;-83
2023/05/07 10:27:20;;;;;;;;;;;;;;;;;;5046449;28;19920;-83
2023/05/07 10:29:49;;;;;;;;;;;;;;;;;;5055056;28;19939;-83
2023/05/07 10:32:15;;;;;;;;;;;;;;;;;;5059610;28;19913;-83
2023/05/07 10:34:40;;;;;;;;;;;;;;;;;;5044955;28;19905;-82
2023/05/07 10:37:05;;;;;;;;;;;;;;;;;;5063206;28;20550;-81
2023/05/07 10:39:31;;;;;;;;;;;;;;;;;;5070244;28;20007;-82
2023/05/07 10:41:56;;;;;;;;;;;;;;;;;;5064289;28;19913;-82
2023/05/07 10:44:22;;;;;;;;;;;;;;;;;;5050394;28;19980;-82
2023/05/07 10:46:48;;;;;;;;;;;;;;;;;;5097587;28;19920;-82
2023/05/07 10:49:18;;;;;;;;;;;;;;;;;;5061952;28;19936;-82
2023/05/07 10:52:05;;;;;;;;;;;;;;;;;;5061136;28;19912;-82
2023/05/07 10:54:30;;;;;;;;;;;;;;;;;;5067427;28;20179;-82
2023/05/07 10:57:03;;;;;;;;;;;;;;;;;;5078851;28;19897;-82
2023/05/07 10:59:31;;;;;;;;;;;;;;;;;;5063067;28;19927;-82
2023/05/07 11:01:59;;;;;;;;;;;;;;;;;;5061190;28;19896;-82
2023/05/07 11:04:47;;;;;;;;;;;;;;;;;;5053816;28;19904;-80
2023/05/07 11:07:27;;;;;;;;;;;;;;;;;;5058822;28;19921;-81
2023/05/07 11:09:58;;;;;;;;;;;;;;;;;;5057345;28;19913;-82
2023/05/07 11:12:42;;;;;;;;;;;;;;;;;;5052368;28;19943;-81
2023/05/07 11:15:15;;;;;;;;;;;;;;;;;;5069990;28;19921;-83
2023/05/07 11:17:41;;;;;;;;;;;;;;;;;;5064380;28;19913;-81
2023/05/07 11:20:06;;;;;;;;;;;;;;;;;;5034991;28;19943;-82
2023/05/07 11:22:40;;;;;;;;;;;;;;;;;;5062955;28;19921;-81
2023/05/07 11:25:26;;;;;;;;;;;;;;;;;;5051917;28;19913;-80
2023/05/07 11:28:11;;;;;;;;;;;;;;;;;;5053613;28;19917;-82
2023/05/07 11:30:42;;;;;;;;;;;;;;;;;;5051124;28;19944;-83
2023/05/07 11:33:10;;;;;;;;;;;;;;;;;;5056551;28;19928;-83
2023/05/07 11:35:36;;;;;;;;;;;;;;;;;;5055344;28;19905;-83
2023/05/07 11:38:01;;;;;;;;;;;;;;;;;;5054802;28;19928;-82
2023/05/07 11:40:29;;;;;;;;;;;;;;;;;;5073332;28;19933;-82
2023/05/07 11:42:54;;;;;;;;;;;;;;;;;;5059019;28;19916;-81
2023/05/07 11:45:22;;;;;;;;;;;;;;;;;;5053505;28;19913;-82
2023/05/07 11:47:48;;;;;;;;;;;;;;;;;;5058027;28;19908;-81
2023/05/07 11:50:13;;;;;;;;;;;;;;;;;;5054369;28;19909;-83
2023/05/07 11:52:39;;;;;;;;;;;;;;;;;;5055313;28;19920;-81
2023/05/07 11:55:04;;;;;;;;;;;;;;;;;;5061236;28;20437;-82
2023/05/07 11:57:30;;;;;;;;;;;;;;;;;;5056415;28;19913;-82
2023/05/07 11:59:55;;;;;;;;;;;;;;;;;;5087933;28;20383;-83
2023/05/07 12:02:24;;;;;;;;;;;;;;;;;;5064295;28;19904;-82
2023/05/07 12:04:49;;;;;;;;;;;;;;;;;;5069367;28;19916;-82
2023/05/07 12:07:15;;;;;;;;;;;;;;;;;;5053581;28;19913;-82
2023/05/07 12:09:40;;;;;;;;;;;;;;;;;;5053445;28;19917;-82
2023/05/07 12:12:05;;;;;;;;;;;;;;;;;;5053859;28;19959;-83
2023/05/07 12:14:32;;;;;;;;;;;;;;;;;;5051821;28;19956;-82
2023/05/07 12:16:57;;;;;;;;;;;;;;;;;;5050894;28;19913;-82
2023/05/07 12:19:23;;;;;;;;;;;;;;;;;;5057105;28;19923;-82
2023/05/07 12:21:48;;;;;;;;;;;;;;;;;;5055162;28;19917;-82
2023/05/07 12:24:13;;;;;;;;;;;;;;;;;;5059006;28;19917;-83
2023/05/07 12:26:40;;;;;;;;;;;;;;;;;;5054823;28;19924;-83
2023/05/07 12:29:05;;;;;;;;;;;;;;;;;;5057601;28;19916;-81
2023/05/07 12:31:31;;;;;;;;;;;;;;;;;;5056906;28;19900;-83
2023/05/07 12:33:56;;;;;;;;;;;;;;;;;;5046093;28;19993;-82
2023/05/07 12:36:21;;;;;;;;;;;;;;;;;;5063080;28;19899;-82
2023/05/07 12:38:47;;;;;;;;;;;;;;;;;;5062945;28;19893;-82
2023/05/07 12:41:12;;;;;;;;;;;;;;;;;;5058441;28;19917;-82
2023/05/07 12:43:38;;;;;;;;;;;;;;;;;;5065303;28;19919;-82
2023/05/07 12:46:03;;;;;;;;;;;;;;;;;;5065406;28;19909;-82
2023/05/07 12:48:28;;;;;;;;;;;;;;;;;;5061489;28;19920;-82
2023/05/07 12:50:54;;;;;;;;;;;;;;;;;;5060452;28;19897;-83
2023/05/07 12:53:19;;;;;;;;;;;;;;;;;;5062174;28;19897;-82
2023/05/07 12:55:45;;;;;;;;;;;;;;;;;;5056009;28;19897;-84
2023/05/07 12:58:10;;;;;;;;;;;;;;;;;;5061796;28;20063;-82
2023/05/07 13:00:35;;;;;;;;;;;;;;;;;;5056271;28;19905;-83
2023/05/07 13:03:01;;;;;;;;;;;;;;;;;;5107394;28;19917;-82
2023/05/07 13:05:26;;;;;;;;;;;;;;;;;;5064373;28;19916;-82
2023/05/07 13:07:51;;;;;;;;;;;;;;;;;;5076609;28;19968;-81
2023/05/07 13:10:17;;;;;;;;;;;;;;;;;;5061420;28;19917;-82
2023/05/07 13:12:42;;;;;;;;;;;;;;;;;;5059948;28;19893;-83
2023/05/07 13:15:07;;;;;;;;;;;;;;;;;;5051015;28;19913;-82
2023/05/07 13:17:33;;;;;;;;;;;;;;;;;;5060211;28;19915;-82
2023/05/07 13:19:58;;;;;;;;;;;;;;;;;;5063883;28;19909;-82
2023/05/07 13:22:23;;;;;;;;;;;;;;;;;;5056103;28;20050;-82
2023/05/07 13:24:49;;;;;;;;;;;;;;;;;;5065319;28;19893;-82
2023/05/07 13:27:15;;;;;;;;;;;;;;;;;;5056047;28;19897;-82
2023/05/07 13:29:40;;;;;;;;;;;;;;;;;;5054325;28;19909;-82
2023/05/07 13:32:05;;;;;;;;;;;;;;;;;;5060397;28;19917;-82
2023/05/07 13:34:31;;;;;;;;;;;;;;;;;;5057504;28;19913;-83
2023/05/07 13:36:56;;;;;;;;;;;;;;;;;;5058400;28;19901;-83
2023/05/07 13:39:21;;;;;;;;;;;;;;;;;;5057210;28;19917;-82
2023/05/07 13:41:47;;;;;;;;;;;;;;;;;;5058872;28;19931;-82
2023/05/07 13:44:12;;;;;;;;;;;;;;;;;;5065537;28;19939;-82
2023/05/07 13:46:37;;;;;;;;;;;;;;;;;;5070279;28;19900;-82
2023/05/07 13:49:03;;;;;;;;;;;;;;;;;;5066100;28;19893;-82
2023/05/07 13:51:28;;;;;;;;;;;;;;;;;;5066392;28;19920;-82
2023/05/07 13:53:54;;;;;;;;;;;;;;;;;;5065097;28;20340;-83
2023/05/07 13:56:20;;;;;;;;;;;;;;;;;;5065530;28;19899;-81
2023/05/07 13:58:45;;;;;;;;;;;;;;;;;;5076071;28;19976;-81
2023/05/07 14:01:10;;;;;;;;;;;;;;;;;;5063474;28;19916;-82
2023/05/07 14:03:37;;;;;;;;;;;;;;;;;;5067401;28;20058;-83
2023/05/07 14:06:02;;;;;;;;;;;;;;;;;;5061347;28;19912;-83
2023/05/07 14:08:28;;;;;;;;;;;;;;;;;;5061902;28;19913;-83
2023/05/07 14:10:53;;;;;;;;;;;;;;;;;;5061003;28;20411;-82
2023/05/07 14:13:18;;;;;;;;;;;;;;;;;;5100280;28;19922;-82
2023/05/07 14:15:48;;;;;;;;;;;;;;;;;;5059677;28;19912;-83
2023/05/07 14:18:14;;;;;;;;;;;;;;;;;;5059552;28;19921;-82
2023/05/07 14:20:39;;;;;;;;;;;;;;;;;;5055719;28;19927;-82
2023/05/07 14:23:04;;;;;;;;;;;;;;;;;;5056975;28;19944;-81
2023/05/07 14:25:30;;;;;;;;;;;;;;;;;;5059997;28;19934;-83
2023/05/07 14:27:55;;;;;;;;;;;;;;;;;;5062201;28;19920;-83
2023/05/07 14:30:22;;;;;;;;;;;;;;;;;;5061666;28;19979;-83
2023/05/07 14:32:47;;;;;;;;;;;;;;;;;;5088468;28;20276;-82
2023/05/07 14:35:12;;;;;;;;;;;;;;;;;;5052883;28;19921;-83
2023/05/07 14:37:38;;;;;;;;;;;;;;;;;;5091504;28;19911;-83
2023/05/07 14:40:03;;;;;;;;;;;;;;;;;;5054562;28;19921;-83
2023/05/07 14:42:28;;;;;;;;;;;;;;;;;;5077067;28;19963;-82
2023/05/07 14:44:54;;;;;;;;;;;;;;;;;;5050957;28;20006;-82
2023/05/07 14:47:19;;;;;;;;;;;;;;;;;;5048125;28;19916;-81
2023/05/07 14:49:44;;;;;;;;;;;;;;;;;;5048572;28;19913;-82
2023/05/07 14:52:10;;;;;;;;;;;;;;;;;;5048200;28;19912;-82
2023/05/07 14:54:35;;;;;;;;;;;;;;;;;;5042713;28;19913;-82
2023/05/07 14:57:00;;;;;;;;;;;;;;;;;;5044247;28;19963;-82
2023/05/07 14:59:26;;;;;;;;;;;;;;;;;;5043540;28;19917;-82
2023/05/07 15:01:51;;;;;;;;;;;;;;;;;;5048440;28;19987;-82
2023/05/07 15:04:16;;;;;;;;;;;;;;;;;;5043748;28;19920;-82
2023/05/07 15:06:42;;;;;;;;;;;;;;;;;;5042723;28;19913;-82
2023/05/07 15:09:08;;;;;;;;;;;;;;;;;;5043632;28;19976;-82
2023/05/07 15:11:34;;;;;;;;;;;;;;;;;;5043463;28;19939;-82
2023/05/07 15:13:59;;;;;;;;;;;;;;;;;;5041467;28;19920;-82
2023/05/07 15:16:24;;;;;;;;;;;;;;;;;;5042287;28;19901;-82
2023/05/07 15:18:50;;;;;;;;;;;;;;;;;;5044861;28;19917;-81
2023/05/07 15:21:15;;;;;;;;;;;;;;;;;;5049614;28;20566;-82
2023/05/07 15:23:41;;;;;;;;;;;;;;;;;;5049476;28;19917;-82
2023/05/07 15:26:07;;;;;;;;;;;;;;;;;;5042472;28;19952;-82
2023/05/07 15:28:32;;;;;;;;;;;;;;;;;;5045529;28;20295;-81
2023/05/07 15:30:58;;;;;;;;;;;;;;;;;;5043155;28;19908;-82
2023/05/07 15:33:23;;;;;;;;;;;;;;;;;;5043528;28;19955;-83
2023/05/07 15:35:48;;;;;;;;;;;;;;;;;;5041203;28;20399;-83
2023/05/07 15:38:14;;;;;;;;;;;;;;;;;;5083210;28;19916;-83
2023/05/07 15:40:42;;;;;;;;;;;;;;;;;;5047406;28;19924;-83
2023/05/07 15:43:08;;;;;;;;;;;;;;;;;;5045038;28;20380;-83
2023/05/07 15:45:33;;;;;;;;;;;;;;;;;;5048497;28;19980;-83
2023/05/07 15:47:58;;;;;;;;;;;;;;;;;;5057703;28;20296;-82
2023/05/07 15:50:24;;;;;;;;;;;;;;;;;;5043852;28;19909;-82
2023/05/07 15:52:49;;;;;;;;;;;;;;;;;;5037009;28;20047;-84
2023/05/07 15:55:15;;;;;;;;;;;;;;;;;;5037655;28;19913;-83
2023/05/07 15:57:40;;;;;;;;;;;;;;;;;;5037174;28;19917;-84
2023/05/07 16:00:08;;;;;;;;;;;;;;;;;;5036753;28;19962;-84
2023/05/07 16:02:37;;;;;;;;;;;;;;;;;;5037123;28;19905;-84
2023/05/07 16:05:02;;;;;;;;;;;;;;;;;;5036395;28;20102;-82
2023/05/07 16:07:28;;;;;;;;;;;;;;;;;;5037692;28;19913;-82
2023/05/07 16:09:53;;;;;;;;;;;;;;;;;;5037382;28;20299;-83
2023/05/07 16:12:18;;;;;;;;;;;;;;;;;;5035843;28;19970;-83
2023/05/07 16:14:43;;;;;;;;;;;;;;;;;;5036747;28;19959;-83
2023/05/07 16:17:09;;;;;;;;;;;;;;;;;;5035817;28;20391;-82
2023/05/07 16:19:34;;;;;;;;;;;;;;;;;;5034857;28;19916;-81
2023/05/07 16:22:00;;;;;;;;;;;;;;;;;;5034804;28;19917;-83
2023/05/07 16:24:25;;;;;;;;;;;;;;;;;;5040923;28;19954;-83
2023/05/07 16:26:50;;;;;;;;;;;;;;;;;;5051333;28;20011;-83
2023/05/07 16:29:16;;;;;;;;;;;;;;;;;;5049772;28;19909;-80
2023/05/07 16:31:41;;;;;;;;;;;;;;;;;;5049352;28;19913;-82
2023/05/07 16:34:06;;;;;;;;;;;;;;;;;;5046623;28;20306;-85
2023/05/07 16:36:32;;;;;;;;;;;;;;;;;;5048154;28;20379;-82
2023/05/07 16:38:57;;;;;;;;;;;;;;;;;;5042367;28;19909;-82